Time;durP1;ratioP1;P1;durP2;ratioP2;P2;SDS_P1;SDS_P2;PMS_P1;PMS_P2;Temp;Humidity;BMP_temperature;BMP_pressure;BME280_temperature;BME280_humidity;BME280_pressure;Samples;Min_cycle;Max_cycle;Signal;HPM_P1;HPM_P2
2024/01/10 00:01:49;;;;;;;15.67;10.90;;;-2.30;98.50;;;;;;4970856;28;20184;-91
2024/01/10 00:04:16;;;;;;;16.40;10.50;;;-2.40;98.70;;;;;;4968782;28;20467;-90
2024/01/10 00:06:42;;;;;;;14.80;9.70;;;-2.40;99.30;;;;;;4970116;28;20206;-88
2024/01/10 00:09:08;;;;;;;14.73;9.65;;;;;;;;;;4971830;28;20182;-89
2024/01/10 00:11:34;;;;;;;13.95;9.45;;;;;;;;;;4969265;28;20269;-89
2024/01/10 00:14:03;;;;;;;13.57;8.88;;;;;;;;;;4972346;28;20183;-89
2024/01/10 00:16:29;;;;;;;19.08;10.23;;;;;;;;;;4996379;28;20184;-89
2024/01/10 00:18:54;;;;;;;13.48;9.57;;;-2.00;97.30;;;;;;4972426;28;20200;-91
2024/01/10 00:21:20;;;;;;;21.50;11.03;;;;;;;;;;4972802;28;20549;-90
2024/01/10 00:23:46;;;;;;;12.40;8.50;;;;;;;;;;4972001;28;20198;-89
2024/01/10 00:26:12;;;;;;;14.07;9.85;;;-2.20;97.10;;;;;;4972549;28;20214;-91
2024/01/10 00:28:37;;;;;;;12.33;9.43;;;-1.70;97.80;;;;;;4968277;28;20221;-91
2024/01/10 00:31:03;;;;;;;14.10;9.93;;;-2.10;97.70;;;;;;4969951;28;20195;-89
2024/01/10 00:33:28;;;;;;;14.30;8.73;;;-2.10;97.70;;;;;;4971940;28;20198;-90
2024/01/10 00:35:54;;;;;;;14.10;9.50;;;-2.20;97.60;;;;;;4970851;28;20207;-89
2024/01/10 00:38:19;;;;;;;15.63;9.70;;;-2.30;97.50;;;;;;4975238;28;20225;-89
2024/01/10 00:40:45;;;;;;;14.80;9.70;;;-2.20;97.70;;;;;;4970515;28;20289;-89
2024/01/10 00:43:10;;;;;;;15.77;9.67;;;-2.00;98.00;;;;;;4970878;28;20551;-89
2024/01/10 00:45:36;;;;;;;13.20;9.10;;;-1.90;98.30;;;;;;4989802;28;20208;-89
2024/01/10 00:48:01;;;;;;;14.13;10.10;;;-2.10;98.00;;;;;;4969046;28;20205;-89
2024/01/10 00:50:27;;;;;;;12.17;9.27;;;-1.10;98.40;;;;;;4968910;28;20677;-89
2024/01/10 00:52:53;;;;;;;13.57;9.17;;;-1.50;98.30;;;;;;4971264;28;20574;-89
2024/01/10 00:55:18;;;;;;;16.07;9.40;;;-1.50;98.60;;;;;;4971113;28;20207;-90
2024/01/10 00:57:43;;;;;;;16.33;8.90;;;-1.50;98.50;;;;;;4964927;28;20199;-89
2024/01/10 01:00:10;;;;;;;15.50;10.80;;;-1.90;98.20;;;;;;4969514;28;20190;-88
2024/01/10 01:02:36;;;;;;;15.90;10.15;;;-1.90;98.10;;;;;;4987524;28;20185;-89
2024/01/10 01:05:02;;;;;;;13.73;8.73;;;-1.80;98.50;;;;;;4969870;28;20733;-89
2024/01/10 01:07:28;;;;;;;13.45;9.40;;;-2.00;97.80;;;;;;4970422;28;20980;-89
2024/01/10 01:09:54;;;;;;;14.43;9.30;;;-1.70;97.90;;;;;;4970261;28;20204;-89
2024/01/10 01:12:19;;;;;;;13.77;9.60;;;-2.10;97.40;;;;;;4970279;28;20193;-89
2024/01/10 01:14:45;;;;;;;14.03;8.10;;;-1.90;97.40;;;;;;4971634;28;20569;-90
2024/01/10 01:17:10;;;;;;;15.57;9.87;;;-1.80;97.30;;;;;;4968874;28;20561;-90
2024/01/10 01:19:36;;;;;;;14.60;9.53;;;-1.80;97.20;;;;;;4970103;28;20514;-89
2024/01/10 01:22:02;;;;;;;13.60;9.30;;;-1.40;97.30;;;;;;4973405;28;20191;-89
2024/01/10 01:24:27;;;;;;;15.10;9.30;;;-2.00;97.10;;;;;;4967993;28;20301;-89
2024/01/10 01:26:53;;;;;;;12.80;8.63;;;-2.20;97.10;;;;;;4969155;28;20220;-89
2024/01/10 01:29:19;;;;;;;15.83;9.67;;;-1.20;97.60;;;;;;4967203;28;20191;-90
2024/01/10 01:31:45;;;;;;;13.38;9.00;;;-1.80;97.00;;;;;;4967567;28;20288;-90
2024/01/10 01:34:10;;;;;;;14.43;9.57;;;-1.70;96.30;;;;;;4969566;28;20290;-88
2024/01/10 01:36:36;;;;;;;10.40;8.30;;;;;;;;;;4971676;28;20197;-89
2024/01/10 01:39:03;;;;;;;12.68;8.98;;;;;;;;;;4968691;28;20280;-90
2024/01/10 01:41:29;;;;;;;13.52;8.73;;;;;;;;;;4985809;28;20220;-90
2024/01/10 01:43:55;;;;;;;15.02;10.23;;;;;;;;;;4967956;28;20187;-90
2024/01/10 01:46:21;;;;;;;13.23;9.38;;;-1.80;96.90;;;;;;4970056;28;20215;-90
2024/01/10 01:48:48;;;;;;;17.38;8.70;;;;;;;;;;4968187;28;20702;-90
2024/01/10 01:51:15;;;;;;;12.43;8.93;;;-1.90;96.80;;;;;;4971420;28;20185;-90
2024/01/10 01:53:42;;;;;;;13.00;9.88;;;-0.50;97.80;;;;;;4980768;28;20179;-89
2024/01/10 01:56:08;;;;;;;13.88;9.18;;;-1.60;96.50;;;;;;4991570;28;20192;-89
2024/01/10 01:58:36;;;;;;;14.30;8.68;;;-1.60;94.30;;;;;;4988174;28;20206;-89
2024/01/10 02:01:04;;;;;;;9.68;7.13;;;-1.20;93.60;;;;;;4979136;28;20708;-90
2024/01/10 02:03:32;;;;;;;14.73;8.70;;;-1.10;93.40;;;;;;4985039;28;20191;-89
2024/01/10 02:05:59;;;;;;;12.25;8.70;;;;;;;;;;4969443;28;20698;-90
2024/01/10 02:08:25;;;;;;;12.98;8.70;;;;;;;;;;4969208;28;20184;-90
2024/01/10 02:10:51;;;;;;;15.82;9.85;;;-1.40;94.80;;;;;;4966885;28;20228;-90
2024/01/10 02:13:17;;;;;;;13.50;8.33;;;;;;;;;;4968625;28;20213;-90
2024/01/10 02:15:43;;;;;;;10.85;8.50;;;;;;;;;;4971560;28;20213;-90
2024/01/10 02:18:12;;;;;;;11.73;7.95;;;-1.20;93.00;;;;;;4987904;28;20199;-90
2024/01/10 02:20:38;;;;;;;15.70;8.82;;;;;;;;;;4981076;28;20271;-89
2024/01/10 02:23:03;;;;;;;13.40;8.32;;;-1.20;91.40;;;;;;4971961;28;20199;-89
2024/01/10 02:25:29;;;;;;;14.87;9.87;;;;;;;;;;4973263;28;20216;-89
2024/01/10 02:27:55;;;;;;;14.50;8.45;;;;;;;;;;4973571;28;20587;-89
2024/01/10 02:30:21;;;;;;;11.98;9.50;;;;;;;;;;4971631;28;20184;-89
2024/01/10 02:32:47;;;;;;;16.35;10.00;;;-1.00;90.70;;;;;;4972510;28;20187;-89
2024/01/10 02:35:13;;;;;;;13.77;9.47;;;-1.40;92.00;;;;;;4983816;28;20215;-90
2024/01/10 02:37:38;;;;;;;15.83;10.77;;;-1.00;91.80;;;;;;4967973;28;20199;-90
2024/01/10 02:40:06;;;;;;;13.17;9.10;;;-1.50;90.90;;;;;;4973020;28;20192;-90
2024/01/10 02:42:32;;;;;;;16.83;10.60;;;-1.20;91.30;;;;;;4974534;28;20192;-90
2024/01/10 02:44:57;;;;;;;17.53;10.63;;;-1.20;92.30;;;;;;4972239;28;20218;-90
2024/01/10 02:47:23;;;;;;;15.07;9.83;;;;;;;;;;4974333;28;20219;-90
2024/01/10 02:49:49;;;;;;;16.40;10.82;;;;;;;;;;4973796;28;20245;-90
2024/01/10 02:52:15;;;;;;;13.30;9.65;;;-1.20;91.20;;;;;;4967194;28;20192;-90
2024/01/10 02:54:41;;;;;;;16.77;9.87;;;;;;;;;;4970757;28;20235;-90
2024/01/10 02:57:07;;;;;;;16.17;11.00;;;-1.40;91.30;;;;;;4966204;28;20461;-90
2024/01/10 02:59:33;;;;;;;15.53;10.13;;;;;;;;;;4972253;28;20197;-90
2024/01/10 03:01:58;;;;;;;18.98;11.27;;;-1.20;91.10;;;;;;4970558;28;20192;-89
2024/01/10 03:04:24;;;;;;;15.17;9.40;;;;;;;;;;4972187;28;20204;-90
2024/01/10 03:06:50;;;;;;;15.52;9.60;;;-1.10;90.60;;;;;;4969104;28;20264;-89
2024/01/10 03:09:16;;;;;;;16.90;9.40;;;;;;;;;;4972762;28;20283;-89
2024/01/10 03:11:42;;;;;;;13.65;8.93;;;;;;;;;;4975414;28;20613;-89
2024/01/10 03:14:09;;;;;;;14.05;9.48;;;-0.90;91.00;;;;;;4986797;28;20254;-89
2024/01/10 03:16:36;;;;;;;14.70;9.57;;;;;;;;;;4970500;28;20184;-89
2024/01/10 03:19:02;;;;;;;13.25;9.63;;;;;;;;;;4978235;28;20180;-89
2024/01/10 03:21:28;;;;;;;13.77;10.25;;;;;;;;;;5009326;28;20173;-89
2024/01/10 03:23:56;;;;;;;13.80;9.82;;;-0.90;90.50;;;;;;4995202;28;20692;-89
2024/01/10 03:26:22;;;;;;;14.88;9.98;;;;;;;;;;4992946;28;20236;-89
2024/01/10 03:28:48;;;;;;;13.32;9.45;;;;;;;;;;4995135;28;20248;-89
2024/01/10 03:31:14;;;;;;;11.90;8.82;;;;;;;;;;4986953;28;20192;-89
2024/01/10 03:33:41;;;;;;;13.85;8.77;;;;;;;;;;4975581;28;20188;-89
2024/01/10 03:36:11;;;;;;;17.13;9.20;;;-0.80;90.80;;;;;;4970091;28;20180;-89
2024/01/10 03:38:39;;;;;;;15.32;10.20;;;-0.90;90.70;;;;;;4972459;28;20197;-90
2024/01/10 03:41:05;;;;;;;14.63;9.50;;;;;;;;;;4972446;28;20192;-90
2024/01/10 03:43:32;;;;;;;15.50;10.05;;;;;;;;;;4981215;28;20201;-90
2024/01/10 03:45:58;;;;;;;16.27;10.05;;;-0.70;90.50;;;;;;4993633;28;20223;-90
2024/01/10 03:48:25;;;;;;;16.27;10.47;;;;;;;;;;4970462;28;20185;-89
2024/01/10 03:50:51;;;;;;;12.25;9.07;;;;;;;;;;4970536;28;20431;-89
2024/01/10 03:53:17;;;;;;;18.10;9.40;;;;;;;;;;4970857;28;20537;-89
2024/01/10 03:55:43;;;;;;;14.43;9.95;;;-0.90;90.70;;;;;;4971198;28;20200;-90
2024/01/10 03:58:09;;;;;;;12.23;8.80;;;;;;;;;;4972949;28;20180;-89
2024/01/10 04:00:34;;;;;;;13.52;9.95;;;-0.70;90.70;;;;;;4968678;28;20204;-89
2024/01/10 04:03:00;;;;;;;16.83;9.43;;;;;;;;;;4972794;28;20277;-88
2024/01/10 04:05:26;;;;;;;13.93;10.13;;;-1.00;90.50;;;;;;4971956;28;20215;-88
2024/01/10 04:07:52;;;;;;;15.70;10.00;;;;;;;;;;4972409;28;20687;-89
2024/01/10 04:10:18;;;;;;;16.00;9.35;;;;;;;;;;4972262;28;20195;-89
2024/01/10 04:12:45;;;;;;;15.45;9.65;;;;;;;;;;4969774;28;20659;-90
2024/01/10 04:15:11;;;;;;;14.10;9.40;;;;;;;;;;4965433;28;20201;-90
2024/01/10 04:17:37;;;;;;;16.13;11.18;;;-0.80;90.90;;;;;;4971347;28;20694;-89
2024/01/10 04:20:04;;;;;;;16.25;9.85;;;-0.50;91.50;;;;;;4972936;28;20212;-89
2024/01/10 04:22:30;;;;;;;16.98;10.10;;;-0.90;91.90;;;;;;4972833;28;20594;-89
2024/01/10 04:24:58;;;;;;;13.10;9.67;;;-1.00;91.30;;;;;;4970765;28;20310;-90
2024/01/10 04:27:24;;;;;;;13.95;8.82;;;;;;;;;;4971666;28;20604;-89
2024/01/10 04:29:50;;;;;;;13.32;10.02;;;;;;;;;;4967425;28;20378;-89
2024/01/10 04:32:16;;;;;;;16.10;9.55;;;;;;;;;;4970169;28;20188;-89
2024/01/10 04:34:42;;;;;;;12.43;9.95;;;;;;;;;;4968943;28;20665;-89
2024/01/10 04:37:08;;;;;;;14.25;9.80;;;;;;;;;;4966220;28;20180;-90
2024/01/10 04:39:34;;;;;;;14.23;10.20;;;-1.10;90.80;;;;;;4972298;28;20214;-90
2024/01/10 04:42:00;;;;;;;15.90;10.80;;;;;;;;;;4961099;28;20197;-89
2024/01/10 04:44:28;;;;;;;13.68;8.50;;;-0.90;90.50;;;;;;4968555;28;20204;-89
2024/01/10 04:46:54;;;;;;;17.83;10.65;;;;;;;;;;4971183;28;20247;-89
2024/01/10 04:49:20;;;;;;;17.58;10.23;;;;;;;;;;4967565;28;20216;-90
2024/01/10 04:51:46;;;;;;;16.55;10.98;;;-1.00;90.20;;;;;;4971798;28;20180;-90
2024/01/10 04:54:12;;;;;;;12.75;9.77;;;;;;;;;;4972131;28;20203;-90
2024/01/10 04:56:38;;;;;;;14.65;9.50;;;;;;;;;;4970551;28;20200;-91
2024/01/10 04:59:05;;;;;;;15.27;11.20;;;;;;;;;;4965555;28;20188;-90
2024/01/10 05:01:31;;;;;;;17.75;10.90;;;;;;;;;;4970213;28;20716;-90
2024/01/10 05:03:57;;;;;;;12.82;10.05;;;;;;;;;;4971214;28;20283;-90
2024/01/10 05:06:23;;;;;;;16.50;11.07;;;;;;;;;;4969918;28;20229;-90
2024/01/10 05:08:49;;;;;;;17.70;11.25;;;-0.70;91.40;;;;;;4969804;28;20184;-90
2024/01/10 05:11:15;;;;;;;15.20;11.90;;;-0.80;91.30;;;;;;4972775;28;20176;-90
2024/01/10 05:13:41;;;;;;;13.57;9.02;;;;;;;;;;4967465;28;20181;-91
2024/01/10 05:16:07;;;;;;;15.32;9.80;;;-0.90;91.40;;;;;;4973006;28;20271;-89
2024/01/10 05:18:35;;;;;;;13.13;8.97;;;;;;;;;;4975875;28;20188;-90
2024/01/10 05:21:03;;;;;;;15.43;10.57;;;-0.80;91.80;;;;;;4986528;28;20184;-90
2024/01/10 05:23:30;;;;;;;15.98;11.20;;;;;;;;;;4992283;28;20204;-90
2024/01/10 05:25:56;;;;;;;15.82;10.82;;;-0.80;91.50;;;;;;4971294;28;20787;-90
2024/01/10 05:28:21;;;;;;;14.23;10.20;;;;;;;;;;4971780;28;20251;-90
2024/01/10 05:30:47;;;;;;;17.87;10.77;;;;;;;;;;4973230;28;20189;-90
2024/01/10 05:33:13;;;;;;;16.77;10.63;;;-0.70;91.40;;;;;;4973803;28;20456;-89
2024/01/10 05:35:40;;;;;;;20.17;11.53;;;-1.10;92.00;;;;;;4971452;28;20203;-88
2024/01/10 05:38:06;;;;;;;15.38;10.20;;;;;;;;;;4969656;28;20199;-87
2024/01/10 05:40:33;;;;;;;15.57;9.85;;;;;;;;;;4969174;28;20251;-87
2024/01/10 05:43:07;;;;;;;16.65;10.63;;;-1.00;92.10;;;;;;4992136;28;20192;-88
2024/01/10 05:45:33;;;;;;;16.70;10.85;;;;;;;;;;4985517;28;20546;-88
2024/01/10 05:47:59;;;;;;;18.30;10.32;;;;;;;;;;4983169;28;20221;-88
2024/01/10 05:50:25;;;;;;;17.05;11.05;;;;;;;;;;4970691;28;20200;-87
2024/01/10 05:52:51;;;;;;;17.48;9.98;;;;;;;;;;4972519;28;20271;-86
2024/01/10 05:55:19;;;;;;;17.63;10.75;;;;;;;;;;4967897;28;20298;-87
2024/01/10 05:57:45;;;;;;;16.40;10.77;;;;;;;;;;4970552;28;20190;-88
2024/01/10 06:00:12;;;;;;;16.58;10.38;;;-1.20;92.30;;;;;;4971491;28;21520;-87
2024/01/10 06:02:39;;;;;;;15.15;10.70;;;-1.30;92.70;;;;;;4970127;28;20280;-87
2024/01/10 06:05:07;;;;;;;13.23;9.95;;;-2.10;92.60;;;;;;4969632;28;20206;-87
2024/01/10 06:07:32;;;;;;;18.30;10.55;;;-1.40;93.40;;;;;;4976113;28;20226;-87
2024/01/10 06:09:58;;;;;;;16.10;10.50;;;;;;;;;;4991718;28;20204;-87
2024/01/10 06:12:25;;;;;;;17.52;11.18;;;-1.30;93.30;;;;;;4975451;28;20200;-87
2024/01/10 06:14:51;;;;;;;18.95;11.52;;;;;;;;;;4972766;28;20714;-86
2024/01/10 06:17:17;;;;;;;17.25;10.90;;;;;;;;;;4973216;28;20188;-87
2024/01/10 06:19:44;;;;;;;17.17;11.40;;;;;;;;;;4977965;28;20179;-88
2024/01/10 06:22:13;;;;;;;16.30;11.07;;;;;;;;;;4973202;28;20266;-88
2024/01/10 06:24:40;;;;;;;18.55;11.73;;;;;;;;;;4974766;28;20880;-87
2024/01/10 06:27:07;;;;;;;17.73;10.27;;;;;;;;;;4975349;28;20565;-87
2024/01/10 06:29:33;;;;;;;16.33;10.95;;;;;;;;;;4977676;28;20180;-87
2024/01/10 06:32:01;;;;;;;15.23;10.45;;;;;;;;;;4989031;28;20190;-88
2024/01/10 06:34:29;;;;;;;16.92;10.55;;;-1.40;93.30;;;;;;4975839;28;20300;-87
2024/01/10 06:36:55;;;;;;;14.15;10.10;;;;;;;;;;4972220;28;20202;-87
2024/01/10 06:39:21;;;;;;;20.13;11.65;;;;;;;;;;4968185;28;20269;-88
2024/01/10 06:41:50;;;;;;;18.55;11.35;;;-1.30;93.90;;;;;;4972153;28;20195;-87
2024/01/10 06:44:20;;;;;;;17.77;12.05;;;;;;;;;;4956023;28;20207;-87
2024/01/10 06:46:46;;;;;;;19.42;10.80;;;;;;;;;;4973281;28;20204;-88
2024/01/10 06:49:12;;;;;;;18.80;11.98;;;;;;;;;;4974271;28;20230;-88
2024/01/10 06:51:38;;;;;;;22.45;12.05;;;;;;;;;;4973009;28;20188;-88
2024/01/10 06:54:05;;;;;;;18.17;11.88;;;;;;;;;;4972761;28;20213;-89
2024/01/10 06:56:31;;;;;;;16.15;11.02;;;;;;;;;;4965855;28;20556;-87
2024/01/10 06:59:01;;;;;;;18.45;11.57;;;-1.80;95.30;;;;;;4963862;28;20209;-88
2024/01/10 07:01:27;;;;;;;16.67;11.00;;;;;;;;;;4976732;28;20198;-88
2024/01/10 07:03:56;;;;;;;18.05;11.95;;;;;;;;;;4981906;28;20192;-88
2024/01/10 07:06:22;;;;;;;21.23;11.63;;;;;;;;;;4971553;28;20563;-89
2024/01/10 07:08:50;;;;;;;21.67;12.00;;;-1.90;96.40;;;;;;4971880;28;20212;-89
2024/01/10 07:11:16;;;;;;;15.73;11.00;;;;;;;;;;4971247;28;20188;-88
2024/01/10 07:13:42;;;;;;;21.50;13.55;;;;;;;;;;4974554;28;20178;-89
2024/01/10 07:16:09;;;;;;;19.00;12.77;;;-2.00;97.50;;;;;;4972734;28;20189;-89
2024/01/10 07:18:35;;;;;;;21.33;12.90;;;;;;;;;;4974034;28;20187;-89
2024/01/10 07:21:00;;;;;;;22.38;13.18;;;-2.20;97.50;;;;;;4970542;28;20200;-88
2024/01/10 07:23:26;;;;;;;17.77;11.67;;;-2.00;98.50;;;;;;4974790;28;20289;-88
2024/01/10 07:25:52;;;;;;;17.90;12.43;;;-2.30;98.30;;;;;;4975733;28;20488;-89
2024/01/10 07:28:18;;;;;;;18.42;11.75;;;-2.30;98.20;;;;;;4974849;28;20471;-89
2024/01/10 07:30:45;;;;;;;20.53;12.60;;;-2.00;98.20;;;;;;4970455;28;20179;-89
2024/01/10 07:33:10;;;;;;;18.30;12.65;;;-2.50;98.00;;;;;;4973675;28;20562;-90
2024/01/10 07:35:37;;;;;;;16.27;11.10;;;-2.40;98.00;;;;;;4973320;28;20203;-89
2024/01/10 07:38:04;;;;;;;18.60;12.50;;;-2.20;98.20;;;;;;4970423;28;20450;-89
2024/01/10 07:40:29;;;;;;;21.45;13.02;;;-2.20;98.60;;;;;;4972385;28;20255;-88
2024/01/10 07:42:55;;;;;;;21.73;13.60;;;-2.20;98.20;;;;;;4959397;28;20659;-86
2024/01/10 07:45:22;;;;;;;19.58;11.35;;;-2.20;98.90;;;;;;4975358;28;20206;-85
2024/01/10 07:47:48;;;;;;;19.50;13.38;;;-1.80;99.40;;;;;;4973818;28;20208;-86
2024/01/10 07:50:14;;;;;;;17.63;11.50;;;-1.50;99.90;;;;;;4975218;28;20249;-87
2024/01/10 07:52:40;;;;;;;19.42;12.50;;;-1.90;99.30;;;;;;4967793;28;20188;-88
2024/01/10 07:55:06;;;;;;;19.08;12.57;;;-1.70;99.30;;;;;;4973122;28;20756;-85
2024/01/10 07:57:33;;;;;;;16.15;11.18;;;-1.70;98.70;;;;;;4976576;28;20221;-86
2024/01/10 07:59:59;;;;;;;19.52;12.02;;;-1.40;98.20;;;;;;4974468;28;20186;-88
2024/01/10 08:02:25;;;;;;;18.30;10.97;;;-1.20;97.70;;;;;;4972709;28;20664;-87
2024/01/10 08:04:51;;;;;;;18.17;12.90;;;-1.30;97.50;;;;;;4977288;28;20466;-87
2024/01/10 08:07:16;;;;;;;21.35;12.30;;;-1.50;97.30;;;;;;4964656;28;20206;-87
2024/01/10 08:09:42;;;;;;;19.03;13.07;;;-1.80;96.70;;;;;;4967081;28;20184;-88
2024/01/10 08:12:08;;;;;;;17.20;11.70;;;-2.20;96.40;;;;;;4969649;28;20237;-91
2024/01/10 08:14:33;;;;;;;20.10;12.60;;;-1.50;96.80;;;;;;4971900;28;20239;-86
2024/01/10 08:17:00;;;;;;;17.90;12.87;;;-1.50;96.60;;;;;;4970342;28;20203;-88
2024/01/10 08:19:26;;;;;;;20.60;12.25;;;-0.90;96.80;;;;;;4978297;28;20188;-83
2024/01/10 08:21:55;;;;;;;21.02;13.77;;;-1.40;96.50;;;;;;4974804;28;20198;-83
2024/01/10 08:24:20;;;;;;;17.70;12.60;;;-1.20;96.50;;;;;;4982772;28;20269;-82
2024/01/10 08:26:47;;;;;;;22.13;13.73;;;-0.80;96.80;;;;;;4984010;28;20208;-82
2024/01/10 08:29:15;;;;;;;19.02;12.93;;;-1.10;96.50;;;;;;4981091;28;20194;-85
2024/01/10 08:31:40;;;;;;;19.95;13.50;;;-1.20;96.40;;;;;;4968097;28;20199;-85
2024/01/10 08:34:06;;;;;;;17.70;11.83;;;;;;;;;;4969418;28;20220;-85
2024/01/10 08:36:32;;;;;;;17.98;13.40;;;-0.90;96.00;;;;;;4986255;28;20212;-84
2024/01/10 08:38:57;;;;;;;19.57;13.50;;;-1.10;95.30;;;;;;4977216;28;20745;-84
2024/01/10 08:41:23;;;;;;;16.77;12.57;;;-1.30;95.70;;;;;;4984095;28;20196;-83
2024/01/10 08:43:48;;;;;;;19.63;14.53;;;-1.10;95.50;;;;;;4979235;28;20192;-86
2024/01/10 08:46:14;;;;;;;20.97;14.73;;;-1.00;95.80;;;;;;4976088;28;20199;-85
2024/01/10 08:48:40;;;;;;;19.53;13.40;;;-0.70;95.90;;;;;;4973514;28;20180;-85
2024/01/10 08:51:05;;;;;;;22.52;14.90;;;-0.60;95.90;;;;;;4976824;28;20436;-84
2024/01/10 08:53:31;;;;;;;20.07;14.40;;;-0.70;95.70;;;;;;4972804;28;20189;-84
2024/01/10 08:55:58;;;;;;;24.30;15.90;;;-0.80;95.60;;;;;;4978766;28;20200;-81
2024/01/10 08:58:23;;;;;;;19.52;14.52;;;-0.90;95.60;;;;;;4973151;28;20192;-85
2024/01/10 09:00:49;;;;;;;21.83;15.77;;;-0.70;95.70;;;;;;4974880;28;20284;-85
2024/01/10 09:03:14;;;;;;;21.60;13.40;;;0.30;96.30;;;;;;4975070;28;20211;-83
2024/01/10 09:05:40;;;;;;;23.47;14.67;;;-0.10;96.20;;;;;;4973114;28;20223;-87
2024/01/10 09:08:05;;;;;;;21.23;13.90;;;-0.60;95.40;;;;;;4975987;28;20201;-87
2024/01/10 09:10:31;;;;;;;16.97;13.10;;;-0.60;95.00;;;;;;4975075;28;20216;-84
2024/01/10 09:12:58;;;;;;;25.30;14.63;;;-0.50;94.90;;;;;;4978507;28;20192;-85
2024/01/10 09:15:24;;;;;;;18.80;14.23;;;0.20;94.90;;;;;;4972266;28;20204;-84
2024/01/10 09:17:52;;;;;;;20.95;13.93;;;-0.30;94.80;;;;;;4977226;28;20198;-85
2024/01/10 09:20:17;;;;;;;22.17;14.80;;;-0.30;94.60;;;;;;4972170;28;20240;-85
2024/01/10 09:22:46;;;;;;;22.80;14.90;;;-0.30;94.80;;;;;;4978783;28;20661;-81
2024/01/10 09:25:12;;;;;;;22.35;14.82;;;-0.10;94.30;;;;;;4987292;28;20192;-86
2024/01/10 09:27:40;;;;;;;17.48;14.07;;;1.30;93.90;;;;;;4987113;28;20212;-84
2024/01/10 09:30:08;;;;;;;17.67;14.68;;;1.40;92.90;;;;;;4972704;28;20180;-83
2024/01/10 09:32:34;;;;;;;22.67;14.40;;;0.90;91.70;;;;;;4976662;28;20181;-83
2024/01/10 09:35:00;;;;;;;17.23;14.00;;;1.30;91.40;;;;;;4975508;28;20212;-83
2024/01/10 09:37:26;;;;;;;19.60;15.00;;;1.90;90.90;;;;;;4973218;28;20203;-83
2024/01/10 09:39:52;;;;;;;24.27;16.50;;;2.80;88.60;;;;;;4971128;28;20225;-84
2024/01/10 09:42:18;;;;;;;20.40;15.00;;;1.90;86.20;;;;;;4972470;28;20193;-83
2024/01/10 09:44:45;;;;;;;22.35;15.20;;;2.90;85.50;;;;;;4970017;28;20216;-82
2024/01/10 09:47:13;;;;;;;20.30;15.63;;;3.30;83.50;;;;;;4971358;28;20213;-83
2024/01/10 09:49:38;;;;;;;18.10;14.38;;;4.00;82.30;;;;;;4969801;28;20282;-82
2024/01/10 09:52:08;;;;;;;19.70;15.30;;;4.70;79.40;;;;;;4971810;28;20274;-85
2024/01/10 09:54:35;;;;;;;18.75;15.15;;;4.50;78.90;;;;;;4969603;28;20261;-83
2024/01/10 09:57:00;;;;;;;19.58;14.77;;;5.30;76.70;;;;;;4971952;28;20203;-82
2024/01/10 09:59:26;;;;;;;21.40;16.00;;;5.80;74.30;;;;;;4971387;28;20200;-83
2024/01/10 10:01:52;;;;;;;20.73;15.77;;;5.70;72.50;;;;;;4978137;28;21096;-85
2024/01/10 10:04:20;;;;;;;19.02;14.88;;;5.10;74.40;;;;;;4980599;28;20203;-85
2024/01/10 10:06:46;;;;;;;19.33;15.50;;;4.60;75.50;;;;;;4978202;28;20587;-85
2024/01/10 10:09:12;;;;;;;19.63;16.10;;;4.60;76.70;;;;;;4983199;28;20193;-85
2024/01/10 10:11:40;;;;;;;21.65;16.40;;;4.50;77.20;;;;;;4972180;28;20187;-83
2024/01/10 10:14:18;;;;;;;24.92;16.33;;;4.80;74.80;;;;;;4975703;28;20207;-85
2024/01/10 10:16:44;;;;;;;22.85;16.50;;;5.20;76.40;;;;;;4971562;28;20202;-86
2024/01/10 10:19:11;;;;;;;21.83;16.17;;;4.50;75.20;;;;;;4970544;28;20195;-85
2024/01/10 10:21:37;;;;;;;23.23;17.73;;;4.30;76.50;;;;;;4971626;28;20218;-85
2024/01/10 10:24:07;;;;;;;27.20;17.55;;;3.50;78.60;;;;;;4970340;28;20204;-86
2024/01/10 10:26:33;;;;;;;24.48;16.83;;;3.10;80.60;;;;;;4975876;28;20204;-85
2024/01/10 10:29:02;;;;;;;21.67;15.93;;;3.70;81.90;;;;;;4977774;28;20199;-86
2024/01/10 10:31:29;;;;;;;25.13;16.90;;;3.60;80.60;;;;;;4985954;28;20413;-86
2024/01/10 10:33:55;;;;;;;20.30;15.65;;;3.90;77.30;;;;;;4991139;28;20207;-86
2024/01/10 10:36:21;;;;;;;23.73;16.80;;;3.70;78.70;;;;;;4983804;28;20207;-86
2024/01/10 10:38:48;;;;;;;26.10;16.97;;;3.90;78.90;;;;;;4981369;28;20188;-83
2024/01/10 10:41:14;;;;;;;22.65;16.30;;;4.70;78.60;;;;;;4979842;28;21002;-83
2024/01/10 10:43:40;;;;;;;23.77;16.77;;;5.20;77.00;;;;;;4971362;28;20398;-84
2024/01/10 10:46:14;;;;;;;23.73;17.23;;;5.00;76.00;;;;;;4974191;28;20204;-85
2024/01/10 10:48:40;;;;;;;21.50;16.55;;;5.50;75.20;;;;;;4979499;28;20212;-85
2024/01/10 10:51:10;;;;;;;22.08;17.90;;;6.20;73.90;;;;;;4977342;28;20187;-85
2024/01/10 10:53:38;;;;;;;23.13;17.60;;;6.10;72.10;;;;;;4957969;28;20191;-85
2024/01/10 10:56:05;;;;;;;27.10;16.95;;;6.60;71.60;;;;;;4974775;28;20219;-84
2024/01/10 10:58:43;;;;;;;21.77;17.38;;;6.60;70.80;;;;;;4975648;28;20193;-84
2024/01/10 11:01:11;;;;;;;22.98;17.80;;;7.40;70.40;;;;;;4976076;28;21325;-85
2024/01/10 11:03:40;;;;;;;24.90;19.23;;;6.40;69.70;;;;;;4973467;28;20196;-83
2024/01/10 11:06:06;;;;;;;22.98;16.02;;;6.00;70.60;;;;;;4972336;28;20276;-91
2024/01/10 11:08:38;;;;;;;22.58;17.92;;;7.30;71.40;;;;;;4981355;28;20247;-86
2024/01/10 11:11:11;;;;;;;23.17;18.27;;;5.70;70.10;;;;;;4974215;28;20647;-85
2024/01/10 11:13:51;;;;;;;25.65;17.63;;;5.00;72.50;;;;;;4973219;28;20266;-86
2024/01/10 11:16:39;;;;;;;25.48;17.67;;;4.60;74.40;;;;;;4975912;28;20603;-86
2024/01/10 11:19:28;;;;;;;27.50;18.30;;;5.50;73.70;;;;;;4975365;28;20190;-85
2024/01/10 11:22:23;;;;;;;22.73;17.20;;;4.90;73.10;;;;;;4978401;28;20188;-84
2024/01/10 11:24:49;;;;;;;20.00;16.63;;;4.70;76.00;;;;;;4970008;28;20244;-85
2024/01/10 11:27:16;;;;;;;22.80;17.00;;;4.80;76.20;;;;;;4974534;28;20232;-86
2024/01/10 11:29:45;;;;;;;22.55;17.45;;;5.50;75.90;;;;;;4962081;28;20216;-86
2024/01/10 11:32:17;;;;;;;23.55;18.13;;;5.60;74.60;;;;;;4986957;28;20509;-83
2024/01/10 11:35:00;;;;;;;22.38;17.50;;;6.10;75.30;;;;;;4982914;28;20215;-85
2024/01/10 11:37:42;;;;;;;24.67;17.52;;;5.70;73.90;;;;;;4973125;28;20180;-87
2024/01/10 11:40:10;;;;;;;22.17;17.20;;;6.00;74.30;;;;;;4973650;28;20587;-87
2024/01/10 11:42:45;;;;;;;23.95;18.08;;;6.00;72.70;;;;;;4969177;28;20304;-87
2024/01/10 11:45:31;;;;;;;20.00;16.20;;;5.70;74.10;;;;;;4980067;28;20239;-87
2024/01/10 11:48:02;;;;;;;23.58;17.83;;;7.10;80.40;;;;;;4988009;28;20219;-86
2024/01/10 11:50:31;;;;;;;26.08;18.73;;;5.90;80.20;;;;;;4972731;28;20220;-86
2024/01/10 11:52:56;;;;;;;27.55;17.65;;;4.30;76.70;;;;;;4969077;28;20212;-86
2024/01/10 11:55:48;;;;;;;24.00;18.57;;;6.80;84.80;;;;;;4968831;28;20773;-87
2024/01/10 11:58:17;;;;;;;27.05;19.08;;;5.50;77.30;;;;;;4968881;28;20449;-86
2024/01/10 12:00:43;;;;;;;25.00;19.05;;;;;;;;;;4968969;28;20256;-86
2024/01/10 12:03:18;;;;;;;22.63;17.20;;;4.70;82.00;;;;;;4970391;28;20199;-86
2024/01/10 12:05:44;;;;;;;29.77;19.55;;;;;;;;;;4983398;28;20586;-87
2024/01/10 12:08:10;;;;;;;31.52;19.40;;;4.20;83.60;;;;;;4966195;28;20207;-87
2024/01/10 12:10:37;;;;;;;25.77;19.73;;;4.20;86.90;;;;;;4954678;28;20185;-86
2024/01/10 12:13:07;;;;;;;28.58;19.63;;;3.80;83.80;;;;;;4975305;28;20702;-87
2024/01/10 12:15:32;;;;;;;28.85;18.08;;;4.00;83.50;;;;;;4971823;28;20193;-87
2024/01/10 12:17:58;;;;;;;26.77;18.93;;;4.00;83.90;;;;;;4960358;28;20551;-83
2024/01/10 12:20:23;;;;;;;27.30;18.90;;;4.40;83.50;;;;;;4975848;28;20682;-84
2024/01/10 12:22:51;;;;;;;30.60;21.60;;;4.10;83.30;;;;;;4978262;28;20644;-84
2024/01/10 12:25:19;;;;;;;25.10;18.42;;;4.20;83.20;;;;;;4959875;28;20998;-84
2024/01/10 12:27:44;;;;;;;28.35;19.20;;;5.90;85.50;;;;;;4976896;28;20685;-84
2024/01/10 12:30:10;;;;;;;26.93;18.83;;;4.20;83.70;;;;;;4973769;28;20236;-84
2024/01/10 12:32:36;;;;;;;25.30;18.60;;;3.90;84.40;;;;;;4971492;28;20811;-84
2024/01/10 12:35:03;;;;;;;26.27;17.60;;;4.20;83.90;;;;;;4972550;28;20203;-84
2024/01/10 12:37:29;;;;;;;27.50;19.00;;;4.10;82.90;;;;;;4988373;28;20192;-83
2024/01/10 12:39:54;;;;;;;24.20;18.63;;;4.30;84.10;;;;;;4977643;28;20709;-85
2024/01/10 12:42:20;;;;;;;23.40;17.50;;;4.10;84.20;;;;;;4971786;28;20194;-84
2024/01/10 12:44:47;;;;;;;26.17;18.67;;;4.00;83.90;;;;;;4977443;28;20209;-85
2024/01/10 12:47:20;;;;;;;27.73;19.70;;;4.40;83.70;;;;;;4978632;28;20197;-85
2024/01/10 12:49:51;;;;;;;23.00;18.58;;;4.00;84.80;;;;;;4972757;28;20190;-84
2024/01/10 12:52:21;;;;;;;26.33;19.55;;;3.80;85.10;;;;;;4975627;28;20194;-84
2024/01/10 12:54:47;;;;;;;28.65;19.67;;;3.70;85.80;;;;;;4972407;28;20208;-85
2024/01/10 12:57:12;;;;;;;27.17;17.87;;;3.40;86.10;;;;;;4984301;28;20179;-84
2024/01/10 12:59:39;;;;;;;29.17;20.03;;;3.70;87.30;;;;;;4986568;28;20229;-85
2024/01/10 13:02:05;;;;;;;28.15;20.55;;;3.40;87.30;;;;;;4979414;28;20689;-85